Time;durP1;ratioP1;P1;durP2;ratioP2;P2;SDS_P1;SDS_P2;PMS_P1;PMS_P2;Temp;Humidity;BMP_temperature;BMP_pressure;BME280_temperature;BME280_humidity;BME280_pressure;Samples;Min_cycle;Max_cycle;Signal;HPM_P1;HPM_P2
2022/09/26 00:00:44;;;;;;;28.33;12.75;;;11.20;99.90;;;;;;4990976;28;20110;-67
2022/09/26 00:03:10;;;;;;;32.72;12.68;;;11.20;99.90;;;;;;4987719;28;20045;-67
2022/09/26 00:05:37;;;;;;;29.63;13.80;;;11.20;99.90;;;;;;4990715;28;20030;-66
2022/09/26 00:08:04;;;;;;;31.10;12.65;;;11.20;99.90;;;;;;4989624;28;20129;-68
2022/09/26 00:10:30;;;;;;;28.70;12.52;;;11.20;99.90;;;;;;4988056;28;20709;-67
2022/09/26 00:12:56;;;;;;;29.55;13.13;;;11.20;99.90;;;;;;4990695;28;20113;-66
2022/09/26 00:15:22;;;;;;;31.63;13.63;;;11.20;99.90;;;;;;4987967;28;20495;-66
2022/09/26 00:17:48;;;;;;;26.83;13.05;;;11.10;99.90;;;;;;4990583;28;20030;-67
2022/09/26 00:20:14;;;;;;;39.22;14.05;;;11.10;99.90;;;;;;4988409;28;20502;-67
2022/09/26 00:22:39;;;;;;;33.85;14.25;;;11.10;99.90;;;;;;4989822;28;20088;-65
2022/09/26 00:25:05;;;;;;;34.47;13.93;;;11.10;99.90;;;;;;4989665;28;20109;-68
2022/09/26 00:27:31;;;;;;;38.15;14.00;;;11.10;99.90;;;;;;4989716;28;20102;-66
2022/09/26 00:29:57;;;;;;;29.55;14.05;;;11.10;99.90;;;;;;4989203;28;20062;-67
2022/09/26 00:32:23;;;;;;;36.30;14.15;;;11.00;99.90;;;;;;4988012;28;20034;-67
2022/09/26 00:34:49;;;;;;;33.55;15.48;;;11.00;99.90;;;;;;4990098;28;20035;-65
2022/09/26 00:37:15;;;;;;;32.40;15.48;;;10.90;99.90;;;;;;4988815;28;20534;-67
2022/09/26 00:39:41;;;;;;;47.45;15.20;;;10.90;99.90;;;;;;4990075;28;20030;-66
2022/09/26 00:42:11;;;;;;;37.72;16.50;;;10.90;99.90;;;;;;4987477;28;20145;-67
2022/09/26 00:44:53;;;;;;;37.17;16.23;;;10.90;99.90;;;;;;4991054;28;20572;-66
2022/09/26 00:47:28;;;;;;;39.10;15.45;;;10.90;99.90;;;;;;4987957;28;20034;-66
2022/09/26 00:50:01;;;;;;;38.85;15.93;;;10.90;99.90;;;;;;4989000;28;20041;-66
2022/09/26 00:52:37;;;;;;;40.03;16.50;;;10.90;99.90;;;;;;4986741;28;20045;-66
2022/09/26 00:55:06;;;;;;;42.88;16.13;;;10.90;99.90;;;;;;4988642;28;20141;-65
2022/09/26 00:57:46;;;;;;;36.78;15.70;;;10.90;99.90;;;;;;4988319;28;20034;-66
2022/09/26 01:00:14;;;;;;;34.53;15.05;;;10.90;99.90;;;;;;4987157;28;20058;-68
2022/09/26 01:02:41;;;;;;;35.78;15.77;;;10.90;99.90;;;;;;4987755;28;20047;-66
2022/09/26 01:05:09;;;;;;;44.65;15.52;;;11.00;99.90;;;;;;4988613;28;20139;-67
2022/09/26 01:07:35;;;;;;;37.38;16.00;;;10.90;99.90;;;;;;4989258;28;20034;-68
2022/09/26 01:10:05;;;;;;;36.50;15.15;;;10.90;99.90;;;;;;4989032;28;20394;-67
2022/09/26 01:12:31;;;;;;;37.13;15.23;;;10.90;99.90;;;;;;4971465;28;20737;-65
2022/09/26 01:14:57;;;;;;;34.65;15.25;;;10.90;99.90;;;;;;4972308;28;20061;-64
2022/09/26 01:17:25;;;;;;;36.08;15.20;;;10.90;99.90;;;;;;4988759;28;20034;-66
2022/09/26 01:20:02;;;;;;;37.15;14.68;;;10.90;99.90;;;;;;4989366;28;20029;-66
2022/09/26 01:22:47;;;;;;;31.13;14.57;;;10.90;99.90;;;;;;4986974;28;20034;-66
2022/09/26 01:25:15;;;;;;;36.53;13.68;;;10.80;99.90;;;;;;4988578;28;20042;-68
2022/09/26 01:28:03;;;;;;;29.95;14.43;;;10.80;99.90;;;;;;4987575;28;20035;-67
2022/09/26 01:30:46;;;;;;;28.08;12.20;;;10.80;99.90;;;;;;4987683;28;20034;-67
2022/09/26 01:33:50;;;;;;;24.65;12.40;;;10.80;99.90;;;;;;4989122;28;20062;-68
2022/09/26 01:36:39;;;;;;;25.00;12.27;;;10.80;99.90;;;;;;4972700;28;20117;-67
2022/09/26 01:39:56;;;;;;;27.35;12.82;;;10.80;99.90;;;;;;4985740;28;20038;-67
2022/09/26 01:42:49;;;;;;;25.00;11.98;;;10.80;99.90;;;;;;4953220;28;20046;-65
2022/09/26 01:45:23;;;;;;;25.15;10.73;;;10.70;99.90;;;;;;4987144;28;20044;-69
2022/09/26 01:48:10;;;;;;;23.20;11.45;;;10.70;99.90;;;;;;4989512;28;20045;-67
2022/09/26 01:50:49;;;;;;;29.33;11.57;;;10.80;99.90;;;;;;4985946;28;20101;-67
2022/09/26 01:53:31;;;;;;;20.85;10.88;;;10.80;99.90;;;;;;4987372;28;20042;-67
2022/09/26 01:56:13;;;;;;;25.00;11.68;;;10.80;99.90;;;;;;4989224;28;20038;-65
2022/09/26 01:58:51;;;;;;;23.92;12.02;;;10.80;99.90;;;;;;4989372;28;20124;-68
2022/09/26 02:01:20;;;;;;;24.98;10.90;;;10.80;99.90;;;;;;4987232;28;20467;-67
2022/09/26 02:03:50;;;;;;;24.67;12.15;;;10.80;99.90;;;;;;4988904;28;20046;-67
2022/09/26 02:06:22;;;;;;;25.58;12.10;;;10.80;99.90;;;;;;4985834;28;20034;-67
2022/09/26 02:08:56;;;;;;;28.52;11.77;;;10.70;99.90;;;;;;4987936;28;20485;-66
2022/09/26 02:11:24;;;;;;;24.00;11.35;;;10.70;99.90;;;;;;4987895;28;20030;-66
2022/09/26 02:14:01;;;;;;;23.90;11.00;;;10.60;99.90;;;;;;4988781;28;20046;-65
2022/09/26 02:16:38;;;;;;;23.83;11.38;;;10.60;99.90;;;;;;4990329;28;20034;-66
2022/09/26 02:19:24;;;;;;;27.17;11.93;;;10.60;99.90;;;;;;4992850;28;20093;-68
2022/09/26 02:21:50;;;;;;;23.42;11.98;;;10.70;99.90;;;;;;4991251;28;20499;-67
2022/09/26 02:24:16;;;;;;;27.40;11.30;;;10.70;99.90;;;;;;4992251;28;20061;-69
2022/09/26 02:26:42;;;;;;;31.60;11.88;;;10.70;99.90;;;;;;4991866;28;20382;-65
2022/09/26 02:29:10;;;;;;;23.42;11.75;;;10.60;99.90;;;;;;4991180;28;20529;-67
2022/09/26 02:31:49;;;;;;;26.85;11.85;;;10.70;99.90;;;;;;4981280;28;20018;-65
2022/09/26 02:34:15;;;;;;;25.52;11.35;;;10.70;99.90;;;;;;4991514;28;20120;-68
2022/09/26 02:36:42;;;;;;;27.92;11.70;;;10.60;99.90;;;;;;4991263;28;20034;-66
2022/09/26 02:39:09;;;;;;;21.17;9.70;;;10.60;99.90;;;;;;4992623;28;20138;-66
2022/09/26 02:41:49;;;;;;;28.90;9.70;;;10.50;99.90;;;;;;4989541;28;20231;-66
2022/09/26 02:44:53;;;;;;;24.00;9.43;;;10.60;99.90;;;;;;4991640;28;20044;-66
2022/09/26 02:47:39;;;;;;;18.35;9.13;;;10.60;99.90;;;;;;4948254;28;20046;-67
2022/09/26 02:50:33;;;;;;;24.27;9.57;;;10.60;99.90;;;;;;4985090;28;20150;-69
2022/09/26 02:53:30;;;;;;;21.92;10.48;;;10.60;99.90;;;;;;4986196;28;20046;-67
2022/09/26 02:56:17;;;;;;;17.83;9.15;;;10.70;99.90;;;;;;4992042;28;20062;-65
2022/09/26 02:58:54;;;;;;;19.80;9.82;;;10.70;99.90;;;;;;4990843;28;20042;-66
2022/09/26 03:01:52;;;;;;;17.88;9.05;;;10.70;99.90;;;;;;4989717;28;20036;-68
2022/09/26 03:04:27;;;;;;;24.48;8.88;;;10.70;99.90;;;;;;4987610;28;20225;-68
2022/09/26 03:06:58;;;;;;;21.98;9.80;;;10.60;99.90;;;;;;4989445;28;20030;-66
2022/09/26 03:09:27;;;;;;;20.67;9.60;;;10.50;99.90;;;;;;4992129;28;20117;-67
2022/09/26 03:11:54;;;;;;;21.58;10.57;;;10.40;99.90;;;;;;4991432;28;20057;-67
2022/09/26 03:14:20;;;;;;;20.98;9.95;;;10.40;99.90;;;;;;4989673;28;20034;-69
2022/09/26 03:16:48;;;;;;;23.05;10.02;;;10.40;99.90;;;;;;4998033;28;20038;-67
2022/09/26 03:19:17;;;;;;;21.70;9.80;;;10.40;99.90;;;;;;4990448;28;20038;-67
2022/09/26 03:21:44;;;;;;;33.17;10.13;;;10.40;99.90;;;;;;4988254;28;20038;-65
2022/09/26 03:24:12;;;;;;;20.83;9.88;;;10.40;99.90;;;;;;4990294;28;20076;-68
2022/09/26 03:26:38;;;;;;;25.55;11.00;;;10.40;99.90;;;;;;4989802;28;20690;-65
2022/09/26 03:29:04;;;;;;;24.13;11.55;;;10.40;99.90;;;;;;4989610;28;20092;-68
2022/09/26 03:31:30;;;;;;;25.45;11.27;;;10.40;99.90;;;;;;4982938;28;20113;-68
2022/09/26 03:33:55;;;;;;;24.98;10.85;;;10.30;99.90;;;;;;4990476;28;20460;-65
2022/09/26 03:36:22;;;;;;;23.42;10.35;;;10.30;99.90;;;;;;4973549;28;20041;-69
2022/09/26 03:38:48;;;;;;;23.45;11.30;;;10.20;99.90;;;;;;4992321;28;20038;-66
2022/09/26 03:41:14;;;;;;;28.23;11.80;;;10.10;99.90;;;;;;4967906;28;20502;-67
2022/09/26 03:43:42;;;;;;;34.03;12.52;;;10.10;99.90;;;;;;4990171;28;20516;-67
2022/09/26 03:46:10;;;;;;;26.20;11.45;;;10.00;99.90;;;;;;4989926;28;20038;-67
2022/09/26 03:48:36;;;;;;;28.30;12.15;;;9.90;99.90;;;;;;4991315;28;20026;-66
2022/09/26 03:51:12;;;;;;;36.83;12.77;;;9.80;99.90;;;;;;4988404;28;20041;-66
2022/09/26 03:53:40;;;;;;;32.45;13.63;;;9.80;99.90;;;;;;4986524;28;20057;-65
2022/09/26 03:56:07;;;;;;;30.85;13.10;;;9.70;99.90;;;;;;4988850;28;20038;-66
2022/09/26 03:58:33;;;;;;;26.38;13.32;;;9.70;99.90;;;;;;4991004;28;20030;-65
2022/09/26 04:01:03;;;;;;;29.80;14.00;;;9.70;99.90;;;;;;4978856;28;20061;-66
2022/09/26 04:06:29;;;;;;;31.52;12.88;;;9.60;99.90;;;;;;4899256;29;20079;-67
2022/09/26 04:08:55;;;;;;;28.75;13.88;;;9.50;99.90;;;;;;4920620;28;20191;-65
2022/09/26 04:11:23;;;;;;;29.30;13.27;;;9.50;99.90;;;;;;4990585;28;20030;-68
2022/09/26 04:13:49;;;;;;;33.63;14.70;;;9.50;99.90;;;;;;4971246;28;20129;-67
2022/09/26 04:16:15;;;;;;;31.58;14.27;;;9.50;99.90;;;;;;4990757;28;20142;-67
2022/09/26 04:18:41;;;;;;;33.22;15.15;;;9.60;99.90;;;;;;4989740;28;20051;-66
2022/09/26 04:21:14;;;;;;;35.05;15.02;;;9.60;99.90;;;;;;4988478;28;20145;-65
2022/09/26 04:23:41;;;;;;;37.80;15.57;;;9.60;99.90;;;;;;4989144;28;20042;-68
2022/09/26 04:26:10;;;;;;;39.00;15.32;;;9.60;99.90;;;;;;4988906;28;20047;-66
2022/09/26 04:28:37;;;;;;;32.13;14.70;;;9.50;99.90;;;;;;4989569;28;20045;-66
2022/09/26 04:31:05;;;;;;;31.83;14.65;;;9.60;99.90;;;;;;4989827;28;20035;-65
2022/09/26 04:33:32;;;;;;;31.23;14.02;;;9.60;99.90;;;;;;4987675;28;20042;-67
2022/09/26 04:36:03;;;;;;;34.08;14.73;;;9.50;99.90;;;;;;4993794;28;20172;-67
2022/09/26 04:38:32;;;;;;;27.88;12.70;;;9.50;99.90;;;;;;4989775;28;20030;-66
2022/09/26 04:41:07;;;;;;;37.10;14.27;;;9.50;99.90;;;;;;4989171;28;20094;-64
2022/09/26 04:43:33;;;;;;;37.88;15.23;;;9.50;99.90;;;;;;4987647;28;20034;-66
2022/09/26 04:46:00;;;;;;;27.45;13.32;;;9.40;99.90;;;;;;4989210;28;20062;-67
2022/09/26 04:48:26;;;;;;;26.13;12.52;;;9.40;99.90;;;;;;4989937;28;20366;-69
2022/09/26 04:50:52;;;;;;;28.05;13.60;;;9.40;99.90;;;;;;4987988;28;20034;-66
2022/09/26 04:53:18;;;;;;;27.77;13.82;;;9.40;99.90;;;;;;4989028;28;20066;-66
2022/09/26 04:55:46;;;;;;;40.90;13.23;;;9.40;99.90;;;;;;4987661;28;20066;-65
2022/09/26 04:58:14;;;;;;;29.20;13.02;;;9.40;99.90;;;;;;4989496;28;20073;-68
2022/09/26 05:00:44;;;;;;;31.75;13.48;;;9.50;99.90;;;;;;4985650;28;20109;-67
2022/09/26 05:03:12;;;;;;;30.98;13.32;;;9.40;99.90;;;;;;4986214;28;20532;-67
2022/09/26 05:05:40;;;;;;;32.05;14.73;;;9.40;99.90;;;;;;4988465;28;20136;-66
2022/09/26 05:08:06;;;;;;;33.05;13.80;;;9.30;99.90;;;;;;4983146;28;20105;-66
2022/09/26 05:10:32;;;;;;;28.20;13.77;;;9.30;99.90;;;;;;4985012;28;20022;-66
2022/09/26 05:12:58;;;;;;;32.00;14.60;;;9.20;99.90;;;;;;4984545;28;20595;-66
2022/09/26 05:15:24;;;;;;;30.08;14.45;;;9.20;99.90;;;;;;4980483;28;20061;-66
2022/09/26 05:17:56;;;;;;;31.67;13.57;;;9.20;99.90;;;;;;4987531;28;20030;-66
2022/09/26 05:20:22;;;;;;;29.13;14.13;;;9.20;99.90;;;;;;4989362;28;20474;-66
2022/09/26 05:22:48;;;;;;;32.58;14.73;;;9.20;99.90;;;;;;4987439;28;20038;-66
2022/09/26 05:28:06;;;;;;;31.63;15.10;;;9.20;99.90;;;;;;4965952;28;20379;-66
2022/09/26 05:30:33;;;;;;;35.80;15.73;;;9.30;99.90;;;;;;4986228;28;20081;-66
2022/09/26 05:32:58;;;;;;;32.70;15.27;;;9.30;99.90;;;;;;4989138;28;20041;-65
2022/09/26 05:35:24;;;;;;;33.38;14.77;;;9.40;99.90;;;;;;4989052;28;20038;-65
2022/09/26 05:38:00;;;;;;;30.00;14.55;;;9.40;99.90;;;;;;4988060;28;20724;-66
2022/09/26 05:43:10;;;;;;;34.78;15.95;;;9.50;99.90;;;;;;4989010;28;20050;-65
2022/09/26 05:45:36;;;;;;;39.10;15.45;;;9.50;99.90;;;;;;4987468;28;20026;-65
2022/09/26 05:48:03;;;;;;;41.55;16.27;;;9.50;99.90;;;;;;4989875;28;20023;-66
2022/09/26 05:50:29;;;;;;;33.78;15.30;;;9.60;99.90;;;;;;4990515;28;20470;-66
2022/09/26 05:52:58;;;;;;;36.13;16.38;;;9.60;99.90;;;;;;4995168;28;20471;-66
2022/09/26 05:55:25;;;;;;;32.25;15.75;;;9.60;99.90;;;;;;4995257;28;20473;-66
2022/09/26 05:57:59;;;;;;;31.48;16.13;;;9.70;99.90;;;;;;4990072;28;20872;-66
2022/09/26 06:00:27;;;;;;;34.33;15.50;;;9.70;99.90;;;;;;4995533;28;20085;-66
2022/09/26 06:02:55;;;;;;;30.67;13.48;;;9.60;99.90;;;;;;4978421;28;20037;-66
2022/09/26 06:05:20;;;;;;;36.90;15.27;;;9.60;99.90;;;;;;4995206;28;20034;-66
2022/09/26 06:07:46;;;;;;;33.63;15.75;;;9.50;99.90;;;;;;4993070;28;20039;-66
2022/09/26 06:10:12;;;;;;;36.72;16.17;;;9.50;99.90;;;;;;4993642;28;20135;-66
2022/09/26 06:12:38;;;;;;;38.92;15.45;;;9.50;99.90;;;;;;4992210;28;20046;-70
2022/09/26 06:15:04;;;;;;;35.88;15.60;;;9.50;99.90;;;;;;4989114;28;20041;-69
2022/09/26 06:17:31;;;;;;;34.72;16.95;;;9.60;99.90;;;;;;4990877;28;20506;-68
2022/09/26 06:19:57;;;;;;;37.58;17.58;;;9.70;99.90;;;;;;4987124;28;20085;-70
2022/09/26 06:22:23;;;;;;;43.78;16.73;;;9.80;99.90;;;;;;4988946;28;20026;-69
2022/09/26 06:24:49;;;;;;;44.85;17.02;;;9.90;99.90;;;;;;4970703;28;20042;-71
2022/09/26 06:27:14;;;;;;;42.30;17.20;;;9.90;99.90;;;;;;4990068;28;20049;-71
2022/09/26 06:29:40;;;;;;;46.20;16.23;;;10.00;99.90;;;;;;4987189;28;20038;-65
2022/09/26 06:32:05;;;;;;;39.40;15.90;;;10.10;99.90;;;;;;4988425;28;20037;-66
2022/09/26 06:34:31;;;;;;;35.30;14.93;;;10.20;99.90;;;;;;4988611;28;20471;-71
2022/09/26 06:36:58;;;;;;;39.78;15.95;;;10.20;99.90;;;;;;4989653;28;20038;-70
2022/09/26 06:39:29;;;;;;;39.35;16.35;;;10.20;99.90;;;;;;4984889;28;20022;-71
2022/09/26 06:41:55;;;;;;;33.65;16.98;;;10.20;99.90;;;;;;4990678;28;20027;-68
2022/09/26 06:44:22;;;;;;;36.55;15.85;;;10.20;99.90;;;;;;4988158;28;20465;-67
2022/09/26 06:46:48;;;;;;;35.38;16.00;;;10.20;99.90;;;;;;4988522;28;20026;-67
2022/09/26 06:49:14;;;;;;;35.67;16.35;;;10.20;99.90;;;;;;4987806;28;20046;-68
2022/09/26 06:51:39;;;;;;;39.67;15.10;;;10.10;99.90;;;;;;4988422;28;20128;-70
2022/09/26 06:54:05;;;;;;;40.67;16.13;;;10.10;99.90;;;;;;4987294;28;20394;-70
2022/09/26 06:56:31;;;;;;;45.85;17.40;;;10.10;99.90;;;;;;4988917;28;20027;-72
2022/09/26 06:58:56;;;;;;;34.72;16.63;;;10.10;99.90;;;;;;4985839;28;20117;-69
2022/09/26 07:01:22;;;;;;;37.38;16.25;;;10.10;99.90;;;;;;4987466;28;20145;-66
2022/09/26 07:03:48;;;;;;;38.70;16.52;;;10.20;99.90;;;;;;4985483;28;20038;-66
2022/09/26 07:06:13;;;;;;;42.88;16.95;;;10.20;99.90;;;;;;4979010;28;20034;-68
2022/09/26 07:08:39;;;;;;;35.30;16.25;;;10.30;99.90;;;;;;4990940;28;20042;-64
2022/09/26 07:11:05;;;;;;;37.63;16.38;;;10.30;99.90;;;;;;4980371;28;20380;-63
2022/09/26 07:13:34;;;;;;;36.10;16.92;;;10.50;99.90;;;;;;4984634;28;20590;-64
2022/09/26 07:16:00;;;;;;;31.02;14.65;;;10.60;99.90;;;;;;4985172;28;20030;-68
2022/09/26 07:18:25;;;;;;;30.40;14.80;;;10.90;99.90;;;;;;4981588;28;20038;-64
2022/09/26 07:20:52;;;;;;;31.58;14.43;;;11.00;99.90;;;;;;4984663;28;20037;-64
2022/09/26 07:23:17;;;;;;;27.60;12.93;;;11.10;99.90;;;;;;4990237;28;20033;-64
2022/09/26 07:25:45;;;;;;;28.90;13.00;;;11.20;99.90;;;;;;4985025;28;20038;-63
2022/09/26 07:28:12;;;;;;;25.85;12.10;;;11.10;99.90;;;;;;4988190;28;20027;-64
2022/09/26 07:30:38;;;;;;;27.13;12.00;;;11.10;99.90;;;;;;4980929;28;20042;-65
2022/09/26 07:33:04;;;;;;;23.88;11.88;;;11.00;99.90;;;;;;4985800;28;20046;-64
2022/09/26 07:35:32;;;;;;;21.92;10.85;;;11.00;99.90;;;;;;4986907;28;20038;-67
2022/09/26 07:37:58;;;;;;;24.92;10.82;;;10.90;99.90;;;;;;4982260;28;20069;-70
2022/09/26 07:40:24;;;;;;;22.55;10.90;;;11.00;99.90;;;;;;4981861;28;20059;-67
2022/09/26 07:42:51;;;;;;;27.90;12.20;;;11.00;99.90;;;;;;4983675;28;20065;-63
2022/09/26 07:50:10;;;;;;;26.92;12.50;;;11.00;99.90;;;;;;4983631;28;20026;-68
2022/09/26 07:50:59;;;;;;;24.17;11.15;;;11.10;99.90;;;;;;4978730;28;20034;-63
2022/09/26 07:53:25;;;;;;;25.65;11.40;;;11.30;99.90;;;;;;4983700;28;20057;-63
2022/09/26 07:56:10;;;;;;;24.58;11.68;;;11.30;99.90;;;;;;4985298;28;20026;-66
2022/09/26 07:58:38;;;;;;;28.95;12.65;;;11.30;99.90;;;;;;4984753;28;20045;-69
2022/09/26 08:01:10;;;;;;;26.05;10.98;;;11.40;99.90;;;;;;4983749;28;20109;-65
2022/09/26 08:03:48;;;;;;;24.83;11.25;;;11.40;99.90;;;;;;4980769;28;20044;-70
2022/09/26 08:06:19;;;;;;;26.33;11.40;;;11.60;99.90;;;;;;4984157;28;20483;-68
2022/09/26 08:08:46;;;;;;;24.70;11.00;;;11.80;99.90;;;;;;4985320;28;20030;-63
2022/09/26 08:11:17;;;;;;;19.55;9.35;;;11.90;99.90;;;;;;4990645;28;20034;-65
2022/09/26 08:13:44;;;;;;;15.23;7.53;;;12.00;99.90;;;;;;4987255;28;20049;-63
2022/09/26 08:16:10;;;;;;;13.43;7.22;;;12.10;99.90;;;;;;4989118;28;20045;-65
2022/09/26 08:18:36;;;;;;;15.38;7.38;;;12.00;99.90;;;;;;4991615;28;20134;-68
2022/09/26 08:21:05;;;;;;;11.32;6.80;;;11.90;99.90;;;;;;4990039;28;20031;-64
2022/09/26 08:23:32;;;;;;;13.65;6.80;;;11.80;99.90;;;;;;4986821;28;20387;-62
2022/09/26 08:26:02;;;;;;;13.45;6.07;;;11.70;99.90;;;;;;4972427;28;20065;-65
2022/09/26 08:28:28;;;;;;;15.20;6.28;;;11.80;99.90;;;;;;4989736;28;20042;-63
2022/09/26 08:30:56;;;;;;;15.25;6.03;;;11.70;99.90;;;;;;4972274;28;20387;-63
2022/09/26 08:33:22;;;;;;;13.60;5.88;;;11.70;99.90;;;;;;4988800;28;20053;-65
2022/09/26 08:35:48;;;;;;;15.57;6.80;;;11.70;99.90;;;;;;4983502;28;20125;-64
2022/09/26 08:38:14;;;;;;;14.85;6.68;;;11.80;99.90;;;;;;4989906;28;20505;-63
2022/09/26 08:40:54;;;;;;;19.40;6.57;;;11.80;99.90;;;;;;4989564;28;20030;-67
2022/09/26 08:43:39;;;;;;;14.35;6.10;;;11.80;99.90;;;;;;4990255;28;20046;-64
2022/09/26 08:46:58;;;;;;;13.52;6.30;;;11.80;99.90;;;;;;4983759;28;20035;-63
2022/09/26 08:49:49;;;;;;;12.90;7.05;;;11.90;99.90;;;;;;4971595;28;20089;-66
2022/09/26 08:52:23;;;;;;;13.82;6.82;;;11.80;99.90;;;;;;4986195;28;20031;-65
2022/09/26 08:54:50;;;;;;;11.98;6.28;;;11.80;99.90;;;;;;4988763;28;20065;-63
2022/09/26 08:58:08;;;;;;;16.45;7.57;;;11.90;99.90;;;;;;5010386;28;20057;-63
2022/09/26 09:00:37;;;;;;;11.27;5.90;;;11.90;99.90;;;;;;4946500;28;20112;-63
2022/09/26 09:03:20;;;;;;;9.98;5.72;;;11.90;99.90;;;;;;4992245;28;20101;-64
2022/09/26 09:05:52;;;;;;;9.85;5.20;;;11.90;99.90;;;;;;4988239;28;20069;-64
2022/09/26 09:08:46;;;;;;;11.10;5.43;;;12.00;99.90;;;;;;4990942;28;20455;-63
2022/09/26 09:11:45;;;;;;;13.60;6.38;;;12.20;99.90;;;;;;4984779;28;20517;-64
2022/09/26 09:14:49;;;;;;;11.77;5.63;;;12.30;99.90;;;;;;4989515;28;20486;-63
2022/09/26 09:17:39;;;;;;;12.35;5.78;;;12.30;99.90;;;;;;5005152;28;20049;-64
2022/09/26 09:20:28;;;;;;;9.10;5.60;;;12.30;99.90;;;;;;4988566;28;20031;-63
2022/09/26 09:23:23;;;;;;;10.05;5.88;;;12.40;99.90;;;;;;4987461;28;20042;-65
2022/09/26 09:26:18;;;;;;;12.27;4.85;;;12.60;99.90;;;;;;4962902;28;20057;-64
2022/09/26 09:29:00;;;;;;;9.13;4.75;;;12.80;99.90;;;;;;4962499;28;20042;-68
2022/09/26 09:31:31;;;;;;;8.57;3.83;;;13.10;99.90;;;;;;4989532;28;20023;-64
2022/09/26 09:34:01;;;;;;;8.23;4.28;;;13.20;99.90;;;;;;4987735;28;20537;-62
2022/09/26 09:36:33;;;;;;;14.25;4.40;;;13.30;99.90;;;;;;4976762;28;20382;-63
2022/09/26 09:39:08;;;;;;;8.20;4.07;;;13.20;99.90;;;;;;4990632;28;20446;-66
2022/09/26 09:41:44;;;;;;;9.70;3.88;;;13.20;99.90;;;;;;4988244;28;20030;-65
2022/09/26 09:44:39;;;;;;;7.65;4.13;;;13.00;99.90;;;;;;4987759;28;20038;-65
2022/09/26 09:47:13;;;;;;;9.60;3.90;;;13.20;99.90;;;;;;4978726;28;20038;-66
2022/09/26 09:49:41;;;;;;;10.15;4.00;;;13.30;99.90;;;;;;4990176;28;20026;-63
2022/09/26 09:52:30;;;;;;;14.00;5.13;;;13.30;99.90;;;;;;4984974;28;20030;-64
2022/09/26 09:55:08;;;;;;;9.68;4.30;;;13.20;99.90;;;;;;4993900;28;20046;-63
2022/09/26 09:58:01;;;;;;;10.90;4.22;;;13.00;99.90;;;;;;4986700;28;20043;-64
2022/09/26 10:00:27;;;;;;;19.88;3.92;;;13.00;99.90;;;;;;4988476;28;20121;-63
2022/09/26 10:03:01;;;;;;;17.05;4.25;;;13.20;99.90;;;;;;4989295;28;20105;-64
2022/09/26 10:05:40;;;;;;;9.55;4.10;;;13.30;99.90;;;;;;4989060;28;20537;-64
2022/09/26 10:08:23;;;;;;;11.18;4.70;;;13.40;99.90;;;;;;4979901;28;20039;-67
2022/09/26 10:11:11;;;;;;;10.45;4.43;;;13.60;99.90;;;;;;4980967;28;20163;-67
2022/09/26 10:13:41;;;;;;;11.70;4.20;;;13.70;99.90;;;;;;4971137;28;20058;-66
2022/09/26 10:16:13;;;;;;;6.43;3.50;;;13.80;99.90;;;;;;4987609;28;20483;-64
2022/09/26 10:18:55;;;;;;;10.30;3.70;;;13.90;99.90;;;;;;4991659;28;20580;-65
2022/09/26 10:21:27;;;;;;;7.63;3.45;;;14.00;99.90;;;;;;4987251;28;20038;-65
2022/09/26 10:23:52;;;;;;;7.15;3.47;;;14.00;99.90;;;;;;4986822;28;20034;-64
2022/09/26 10:26:23;;;;;;;9.07;3.30;;;13.70;99.90;;;;;;4983015;28;20042;-64
2022/09/26 10:28:54;;;;;;;17.73;4.10;;;13.70;99.90;;;;;;4981484;28;20061;-65
2022/09/26 10:31:28;;;;;;;10.30;4.53;;;13.80;99.90;;;;;;4985521;28;20038;-66
2022/09/26 10:34:01;;;;;;;11.07;3.80;;;13.90;99.90;;;;;;4986673;28;20057;-65
2022/09/26 10:36:36;;;;;;;10.82;3.63;;;14.00;99.90;;;;;;4985787;28;20030;-62
2022/09/26 10:42:03;;;;;;;7.57;4.05;;;14.20;99.90;;;;;;4973053;28;20399;-65
2022/09/26 10:44:33;;;;;;;10.80;3.65;;;14.30;99.90;;;;;;4980121;28;20034;-69
2022/09/26 10:47:10;;;;;;;9.90;3.78;;;14.40;99.90;;;;;;4987420;28;20077;-64
2022/09/26 10:49:53;;;;;;;6.68;3.30;;;14.30;99.90;;;;;;4973694;28;20399;-65
2022/09/26 10:52:52;;;;;;;12.70;3.33;;;14.30;99.90;;;;;;4981057;28;20038;-65
2022/09/26 10:55:28;;;;;;;8.45;3.20;;;14.30;99.90;;;;;;4971101;28;20778;-66
2022/09/26 10:58:01;;;;;;;4.40;2.08;;;14.20;99.90;;;;;;4958193;28;20550;-68
2022/09/26 11:00:32;;;;;;;4.47;2.45;;;14.40;99.90;;;;;;4986216;28;20034;-65
2022/09/26 11:02:59;;;;;;;7.13;2.08;;;14.60;99.90;;;;;;4991977;28;20038;-65
2022/09/26 11:08:12;;;;;;;6.03;2.33;;;14.70;99.90;;;;;;4991130;28;20030;-64
2022/09/26 11:10:40;;;;;;;10.48;2.90;;;14.60;99.90;;;;;;4990950;28;20022;-65
2022/09/26 11:13:17;;;;;;;5.32;2.30;;;14.50;99.90;;;;;;4991947;28;20068;-63
2022/09/26 11:16:12;;;;;;;6.75;2.15;;;14.80;99.90;;;;;;4990106;28;20025;-64
2022/09/26 11:18:45;;;;;;;4.45;2.17;;;15.20;99.90;;;;;;4989010;28;20113;-63
2022/09/26 11:21:21;;;;;;;6.72;2.10;;;15.40;99.90;;;;;;4988867;28;20364;-62
2022/09/26 11:24:02;;;;;;;5.57;2.20;;;14.80;99.90;;;;;;4987024;28;20042;-68
2022/09/26 11:26:47;;;;;;;4.47;2.10;;;14.60;99.90;;;;;;4983826;28;20038;-67
2022/09/26 11:29:41;;;;;;;6.15;2.30;;;15.10;99.90;;;;;;4991150;28;20513;-63
2022/09/26 11:32:16;;;;;;;5.25;2.40;;;14.90;99.90;;;;;;4989685;28;20040;-62
2022/09/26 11:34:42;;;;;;;4.75;2.40;;;14.80;99.90;;;;;;4987858;28;20497;-63
2022/09/26 11:37:29;;;;;;;4.72;2.15;;;15.50;99.90;;;;;;4987191;28;20018;-63
2022/09/26 11:40:01;;;;;;;3.83;2.35;;;15.80;99.90;;;;;;4986471;28;20029;-64
2022/09/26 11:42:41;;;;;;;3.55;1.92;;;16.30;99.90;;;;;;4971438;28;20042;-62
2022/09/26 11:45:48;;;;;;;8.88;1.95;;;16.10;99.90;;;;;;4989945;28;20072;-63
2022/09/26 11:48:28;;;;;;;16.63;5.03;;;15.70;99.90;;;;;;4976730;28;20085;-65
2022/09/26 11:51:13;;;;;;;5.25;1.48;;;15.30;99.90;;;;;;4983747;28;20031;-66
2022/09/26 11:53:39;;;;;;;4.00;1.40;;;15.10;99.90;;;;;;4988506;28;20061;-66
2022/09/26 11:56:23;;;;;;;5.75;1.48;;;15.50;99.90;;;;;;4989624;28;20042;-66
2022/09/26 11:59:06;;;;;;;2.90;1.50;;;15.90;99.90;;;;;;4986692;28;20448;-68
2022/09/26 12:01:37;;;;;;;6.80;1.45;;;16.20;99.90;;;;;;4984500;28;20034;-62
2022/09/26 12:04:33;;;;;;;3.20;1.42;;;16.60;99.90;;;;;;4989346;28;20046;-63
2022/09/26 12:07:15;;;;;;;2.85;1.63;;;16.30;99.90;;;;;;4989576;28;20038;-65
2022/09/26 12:10:15;;;;;;;2.90;1.27;;;16.60;99.90;;;;;;4990166;28;20093;-64
2022/09/26 12:13:08;;;;;;;4.78;1.67;;;16.00;99.90;;;;;;4990844;28;20023;-64
2022/09/26 12:16:05;;;;;;;6.00;1.20;;;15.10;99.90;;;;;;4984287;28;20114;-63
2022/09/26 12:18:52;;;;;;;4.57;1.40;;;14.90;99.90;;;;;;4985340;28;20034;-63
2022/09/26 12:21:23;;;;;;;3.92;1.25;;;14.90;99.90;;;;;;4986067;28;20038;-62
2022/09/26 12:23:56;;;;;;;4.35;1.40;;;14.70;99.90;;;;;;4986018;28;20042;-69
2022/09/26 12:26:40;;;;;;;3.28;1.42;;;14.70;99.90;;;;;;4988785;28;20057;-64
2022/09/26 12:29:22;;;;;;;3.15;1.48;;;14.70;99.90;;;;;;4990653;28;20107;-64
2022/09/26 12:32:06;;;;;;;5.18;1.60;;;14.70;99.90;;;;;;4988054;28;20429;-65
2022/09/26 12:34:50;;;;;;;3.45;1.60;;;14.60;99.90;;;;;;4988615;28;20035;-63
2022/09/26 12:37:44;;;;;;;3.60;1.67;;;14.60;99.90;;;;;;4981428;28;20093;-64
2022/09/26 12:40:09;;;;;;;3.45;1.77;;;14.60;99.90;;;;;;4986186;28;20042;-65
2022/09/26 12:42:41;;;;;;;3.25;1.63;;;14.60;99.90;;;;;;4988073;28;20031;-66
2022/09/26 12:45:18;;;;;;;5.20;1.33;;;14.70;99.90;;;;;;4989691;28;20080;-64
2022/09/26 12:47:53;;;;;;;4.45;1.38;;;14.60;99.90;;;;;;4988514;28;20038;-64
2022/09/26 12:50:54;;;;;;;5.55;1.30;;;14.60;99.90;;;;;;4987923;28;20042;-70
2022/09/26 12:53:58;;;;;;;3.97;1.25;;;14.70;99.90;;;;;;4976547;28;20135;-65
2022/09/26 12:56:48;;;;;;;3.25;1.33;;;14.90;99.90;;;;;;4904518;29;20528;-68
2022/09/26 12:59:32;;;;;;;5.13;1.05;;;15.20;99.90;;;;;;4969249;28;20187;-63
2022/09/26 13:02:06;;;;;;;3.30;1.20;;;15.40;99.90;;;;;;4985793;28;20057;-63
2022/09/26 13:04:53;;;;;;;2.85;0.90;;;15.90;99.90;;;;;;4989265;28;20034;-62
2022/09/26 13:07:30;;;;;;;14.20;1.10;;;16.10;99.90;;;;;;4988614;28;20069;-64
2022/09/26 13:10:03;;;;;;;1.73;0.70;;;16.50;99.90;;;;;;4983790;28;20386;-69
2022/09/26 13:13:05;;;;;;;1.33;0.63;;;16.60;99.90;;;;;;4989648;28;20053;-66
2022/09/26 13:16:11;;;;;;;3.45;0.80;;;16.50;99.90;;;;;;4985087;28;20426;-62
2022/09/26 13:18:50;;;;;;;3.40;0.80;;;16.50;99.90;;;;;;4978181;28;20046;-64
2022/09/26 13:21:38;;;;;;;2.55;0.88;;;16.50;99.90;;;;;;4989634;28;20141;-64
2022/09/26 13:24:12;;;;;;;1.50;0.65;;;16.60;99.90;;;;;;4987958;28;20810;-63
2022/09/26 13:26:44;;;;;;;2.50;0.90;;;16.60;99.90;;;;;;4989620;28;20588;-64